Seabulk Arctic — WCY7054 — position and weather

sailwx.info

Track history (hours):
 
Tides and Currents Weather Stations Pressure Air Temp Water Temp Dewpoint Dewpoint Depression Visibility Wind Speed Wind Dir Waves Ship Positions

Seabulk Arctic

Owner: LIGHTSHIP TANKERS IV LLC, FORT LAUDERDALE, FL. More information available from US FCC via Universal Licensing System and Coast Guard Vessel Documentation Center.

Last reported at 2018-May-25 13:59 UTC. Time now 2018-May-25 14:24 UTC.
Position N 26°05' W 080°07'.

Type: Tanker. MMSI: 366826000.

Date/timePositionNaut miles runAvg speedWind from/ knotsBaromVisibWave heightAir tempDewpointWater temp
2018-May-25 13:59N 26°05' W 080°07'0 0.0
2018-May-25 13:29N 26°05' W 080°07'0 0.0
2018-May-25 12:59N 26°05' W 080°07'0 0.0
2018-May-25 12:29N 26°05' W 080°07'0 0.0
2018-May-25 11:59N 26°05' W 080°07'0 0.0
2018-May-25 11:29N 26°05' W 080°07'0 0.2
2018-May-25 10:59N 26°05' W 080°07'2 3.4
2018-May-25 10:30N 26°06' W 080°05'4 8.2
2018-May-25 10:00N 26°05' W 080°01'4 7.1
2018-May-25 09:30N 26°02' W 079°58'1 1.3
2018-May-25 09:00N 26°02' W 079°58'0 0.9
2018-May-25 08:30N 26°02' W 079°58'2 4.8
2018-May-25 08:00N 25°60' W 079°59'5 9.2
2018-May-25 07:30N 25°55' W 079°59'714.6
2018-May-25 07:00N 25°48' W 079°57'714.8
2018-May-25 06:30N 25°41' W 079°56'714.6
2018-May-25 06:00N 25°34' W 079°55'815.5
2018-May-25 05:30N 25°26' W 079°57'815.8
2018-May-25 04:58N 25°18' W 079°59'  
2018-May-22 18:00N 28°12' W 092°48'9011.5 100 / 131016.010.8 28.023.9
2018-May-22 10:09N 29°38' W 093°19'3 9.2
2018-May-22 09:52N 29°40' W 093°20'3 8.5
2018-May-22 09:30N 29°43' W 093°20'510.3
2018-May-22 09:00N 29°48' W 093°21'5 9.6
2018-May-22 08:30N 29°53' W 093°21'4 8.2
2018-May-22 08:00N 29°57' W 093°20'4 7.3
2018-May-22 07:30N 30°01' W 093°20'3 6.9
2018-May-22 07:00N 30°04' W 093°20'4 7.1
2018-May-22 06:30N 30°08' W 093°20'3 5.3
2018-May-22 06:00N 30°10' W 093°19'0 0.3
2018-May-22 05:30N 30°11' W 093°19'0 0.0
2018-May-22 05:00N 30°11' W 093°19'0 0.0
2018-May-22 04:30N 30°11' W 093°19'0 0.0
2018-May-22 03:54N 30°11' W 093°19'0 0.0
2018-May-22 03:30N 30°11' W 093°19'0 0.0
2018-May-22 03:00N 30°11' W 093°19'0 0.0
2018-May-22 02:30N 30°11' W 093°19'0 0.0
2018-May-22 02:00N 30°11' W 093°19'0 0.0
2018-May-22 01:30N 30°11' W 093°19'0 0.0
2018-May-22 01:00N 30°11' W 093°19'0 0.0
2018-May-22 00:30N 30°11' W 093°19'0 0.0
2018-May-22 00:00N 30°11' W 093°19'0 0.0
2018-May-21 23:30N 30°11' W 093°19'0 0.0
2018-May-21 23:00N 30°11' W 093°19'0 0.0
2018-May-21 22:30N 30°11' W 093°19'0 0.0
2018-May-21 22:00N 30°11' W 093°19'0 0.0
2018-May-21 21:30N 30°11' W 093°19'0 0.0
2018-May-21 21:00N 30°11' W 093°19'0 0.0
2018-May-21 20:30N 30°11' W 093°19'0 0.0
2018-May-21 20:00N 30°11' W 093°19'0 0.0
2018-May-21 19:30N 30°11' W 093°19'0 0.0
2018-May-21 19:00N 30°11' W 093°19'0 0.0
2018-May-21 18:30N 30°11' W 093°19'0 0.0
2018-May-21 18:00N 30°11' W 093°19'0 0.0
2018-May-21 17:30N 30°11' W 093°19'0 0.0
2018-May-21 17:00N 30°11' W 093°19'0 0.0
2018-May-21 16:30N 30°11' W 093°19'0 0.0
2018-May-21 16:00N 30°11' W 093°19'0 0.0
2018-May-21 15:06N 30°11' W 093°19'0 0.0
2018-May-21 15:00N 30°11' W 093°19'0 0.0
2018-May-21 14:30N 30°11' W 093°19'0 0.0
2018-May-21 14:00N 30°11' W 093°19'0 0.0
2018-May-21 13:30N 30°11' W 093°19'0 0.0
2018-May-21 13:00N 30°11' W 093°19'0 0.0
2018-May-21 12:30N 30°11' W 093°19'0 0.0
2018-May-21 12:00N 30°11' W 093°19'0 0.0
2018-May-21 11:30N 30°11' W 093°19'0 0.0
2018-May-21 11:00N 30°11' W 093°19'0 0.0
2018-May-21 10:30N 30°11' W 093°19'0 0.0
2018-May-21 10:00N 30°11' W 093°19'0 0.0
2018-May-21 09:30N 30°11' W 093°19'0 0.0
2018-May-21 09:00N 30°11' W 093°19'0 0.0
2018-May-21 08:30N 30°11' W 093°19'0 0.0
2018-May-21 08:00N 30°11' W 093°19'0 0.0
2018-May-21 07:30N 30°11' W 093°19'0 0.0
2018-May-21 07:00N 30°11' W 093°19'0 0.0
2018-May-21 06:30N 30°11' W 093°19'0 0.0
2018-May-21 06:00N 30°11' W 093°19'0 0.0
2018-May-21 05:30N 30°11' W 093°19'0 0.0
2018-May-21 05:00N 30°11' W 093°19'0 0.0
2018-May-21 04:30N 30°11' W 093°19'0 0.0
2018-May-21 03:57N 30°11' W 093°19'0 0.0
2018-May-21 03:30N 30°11' W 093°19'0 0.0
2018-May-21 03:00N 30°11' W 093°19'0 0.0
2018-May-21 02:30N 30°11' W 093°19'0 0.0
2018-May-21 02:00N 30°11' W 093°19'0 0.0
2018-May-21 01:30N 30°11' W 093°19'0 0.0
2018-May-21 01:00N 30°11' W 093°19'0 0.0
2018-May-21 00:30N 30°11' W 093°19'0 0.0
2018-May-20 23:57N 30°11' W 093°19'0 0.0
2018-May-20 23:30N 30°11' W 093°19'0 0.0
2018-May-20 23:00N 30°11' W 093°19'0 0.0
2018-May-20 22:30N 30°11' W 093°19'0 0.0
2018-May-20 22:00N 30°11' W 093°19'0 0.0
2018-May-20 21:30N 30°11' W 093°19'0 0.0
2018-May-20 21:00N 30°11' W 093°19'0 0.0
2018-May-20 20:30N 30°11' W 093°19'0 0.0
2018-May-20 20:00N 30°11' W 093°19'0 0.0
2018-May-20 19:30N 30°11' W 093°19'0 0.0
2018-May-20 19:00N 30°11' W 093°19'0 0.0
2018-May-20 18:30N 30°11' W 093°19'0 0.0
2018-May-20 18:00N 30°11' W 093°19'0 0.0
2018-May-20 17:30N 30°11' W 093°19'0 0.0
2018-May-20 17:00N 30°11' W 093°19'0 0.0
2018-May-20 16:30N 30°11' W 093°19'0 0.0
2018-May-20 16:00N 30°11' W 093°19'0 0.0
2018-May-20 15:30N 30°11' W 093°19'0 0.0
2018-May-20 15:00N 30°11' W 093°19'0 0.0
2018-May-20 14:30N 30°11' W 093°19'0 0.0
2018-May-20 14:00N 30°11' W 093°19'0 0.0
2018-May-20 13:30N 30°11' W 093°19'0 0.0
2018-May-20 13:00N 30°11' W 093°19'0 0.0
2018-May-20 12:30N 30°11' W 093°19'0 0.0
2018-May-20 12:00N 30°11' W 093°19'0 0.0
2018-May-20 11:30N 30°11' W 093°19'0 0.0
2018-May-20 11:00N 30°11' W 093°19'0 0.0
2018-May-20 10:30N 30°11' W 093°19'0 0.0
2018-May-20 10:00N 30°11' W 093°19'0 0.0
2018-May-20 09:30N 30°11' W 093°19'0 0.0
2018-May-20 09:00N 30°11' W 093°19'0 0.0
2018-May-20 08:30N 30°11' W 093°19'0 0.0
2018-May-20 08:00N 30°11' W 093°19'0 0.0
2018-May-20 07:30N 30°11' W 093°19'0 0.0
2018-May-20 07:00N 30°11' W 093°19'0 0.0
2018-May-20 06:30N 30°11' W 093°19'0 0.0
2018-May-20 06:00N 30°11' W 093°19'0 0.0
2018-May-20 05:30N 30°11' W 093°19'0 0.0
2018-May-20 05:00N 30°11' W 093°19'0 0.0
2018-May-20 04:30N 30°11' W 093°19'0 0.0
2018-May-20 03:57N 30°11' W 093°19'0 0.0
2018-May-20 03:30N 30°11' W 093°19'0 0.0
2018-May-20 03:00N 30°11' W 093°19'0 0.0
2018-May-20 02:30N 30°11' W 093°19'0 0.0
2018-May-20 02:00N 30°11' W 093°19'0 0.0
2018-May-20 01:30N 30°11' W 093°19'0 0.0
2018-May-20 01:00N 30°11' W 093°19'0 0.0
2018-May-20 00:30N 30°11' W 093°19'0 0.0
2018-May-20 00:00N 30°11' W 093°19'0 0.0
2018-May-19 23:30N 30°11' W 093°19'0 0.0
2018-May-19 23:00N 30°11' W 093°19'0 0.0
2018-May-19 22:30N 30°11' W 093°19'0 0.0
2018-May-19 22:00N 30°11' W 093°19'0 0.0
2018-May-19 21:30N 30°11' W 093°19'0 0.0
2018-May-19 21:00N 30°11' W 093°19'0 0.0
2018-May-19 20:30N 30°11' W 093°19'0 0.0
2018-May-19 20:00N 30°11' W 093°19'0 0.0
2018-May-19 19:30N 30°11' W 093°19'0 0.0
2018-May-19 19:00N 30°11' W 093°19'0 0.0
2018-May-19 18:30N 30°11' W 093°19'0 0.0
2018-May-19 18:01N 30°11' W 093°19'1 1.6
2018-May-19 17:30N 30°11' W 093°18'0 0.3
2018-May-19 17:00N 30°11' W 093°18'0 0.1
2018-May-19 16:30N 30°11' W 093°18'0 0.0
2018-May-19 16:00N 30°11' W 093°18'0 0.0
2018-May-19 15:30N 30°11' W 093°18'0 0.0
2018-May-19 15:00N 30°11' W 093°18'0 0.0
2018-May-19 14:30N 30°11' W 093°18'0 0.1
2018-May-19 14:00N 30°11' W 093°18'0 0.0
2018-May-19 13:30N 30°11' W 093°18'0 0.0
2018-May-19 13:00N 30°11' W 093°18'0 0.1
2018-May-19 12:30N 30°11' W 093°18'0 0.1
2018-May-19 12:00N 30°11' W 093°18'0 0.1
2018-May-19 11:24N 30°11' W 093°19'0 0.0
2018-May-19 11:00N 30°11' W 093°19'0 0.0
2018-May-19 10:30N 30°11' W 093°18'0 0.1
2018-May-19 09:54N 30°11' W 093°18'0 0.0
2018-May-19 09:30N 30°11' W 093°18'0 0.0
2018-May-19 09:00N 30°11' W 093°18'0 0.0
2018-May-19 08:30N 30°11' W 093°18'0 0.0
2018-May-19 08:00N 30°11' W 093°18'0 0.0
2018-May-19 07:30N 30°11' W 093°18'0 0.0
2018-May-19 07:00N 30°11' W 093°18'0 0.0
2018-May-19 06:30N 30°11' W 093°18'0 0.0
2018-May-19 06:00N 30°11' W 093°18'0 0.1
2018-May-19 05:30N 30°11' W 093°18'0 0.0
2018-May-19 05:00N 30°11' W 093°18'0 0.0
2018-May-19 04:30N 30°11' W 093°18'0 0.0
2018-May-19 04:00N 30°11' W 093°19'0 0.0
2018-May-19 03:30N 30°11' W 093°19'0 0.1
2018-May-19 03:00N 30°11' W 093°18'0 0.1
2018-May-19 02:30N 30°11' W 093°18'0 0.0
2018-May-19 02:00N 30°11' W 093°18'0 0.1
2018-May-19 01:30N 30°11' W 093°18'0 0.0
2018-May-19 01:00N 30°11' W 093°18'0 0.1
2018-May-19 00:30N 30°11' W 093°18'1 1.7
2018-May-19 00:00N 30°10' W 093°19'2 4.7
2018-May-18 23:30N 30°08' W 093°20'3 6.6
2018-May-18 23:00N 30°05' W 093°20'4 7.5
2018-May-18 22:30N 30°01' W 093°20'4 7.5
2018-May-18 22:00N 29°57' W 093°20'5 9.1
2018-May-18 21:30N 29°53' W 093°21'5 9.4
2018-May-18 21:00N 29°48' W 093°21'5 9.7
2018-May-18 20:30N 29°43' W 093°20'712.7
2018-May-18 19:59N 29°37' W 093°19'6213.1
2018-May-18 15:14N 28°35' W 093°11'313.7
2018-May-18 14:59N 28°32' W 093°09'713.6
2018-May-18 14:30N 28°27' W 093°04'2513.9
2018-May-18 12:43N 28°07' W 092°47'414.3
2018-May-18 12:27N 28°04' W 092°45'1914.4
2018-May-18 11:10N 27°49' W 092°32'214.5
2018-May-18 11:00N 27°48' W 092°30'714.5
2018-May-18 10:30N 27°45' W 092°22'914.4
2018-May-18 09:52N 27°42' W 092°13'614.2
2018-May-18 09:27N 27°40' W 092°07'614.2
2018-May-18 09:00N 27°37' W 091°60'3314.1
2018-May-18 06:38N 27°24' W 091°25'214.1
2018-May-18 06:30N 27°23' W 091°23'2813.1
2018-May-18 04:23N 27°12' W 090°55'  
2018-May-15 21:50N 25°19' W 080°03'7 9.7
2018-May-15 21:10N 25°25' W 080°01'2 9.5
2018-May-15 21:00N 25°27' W 080°01'5 9.6
2018-May-15 20:30N 25°32' W 079°59'5 9.5
2018-May-15 20:00N 25°36' W 079°59'5 9.7
2018-May-15 19:30N 25°41' W 079°59'5 9.7
2018-May-15 19:01N 25°46' W 079°59'5 9.5
2018-May-15 18:31N 25°51' W 079°59'5 9.6
2018-May-15 18:00N 25°55' W 079°58'5 9.5
2018-May-15 17:30N 26°00' W 079°58'5 9.1
2018-May-15 17:01N 26°04' W 080°00'5 9.2
2018-May-15 16:30N 26°06' W 080°05'2 3.9
2018-May-15 16:00N 26°06' W 080°07'0 0.0
2018-May-15 15:29N 26°06' W 080°07'0 0.0
2018-May-15 14:59N 26°06' W 080°07'0 0.0
2018-May-15 14:29N 26°06' W 080°07'0 0.0
2018-May-15 13:59N 26°06' W 080°07'  
Track history (hours):
 
Tides and Currents Weather Stations Pressure Air Temp Water Temp Dewpoint Dewpoint Depression Visibility Wind Speed Wind Dir Waves Ship Positions

Seabulk Arctic

Owner: LIGHTSHIP TANKERS IV LLC, FORT LAUDERDALE, FL. More information available from US FCC via Universal Licensing System and Coast Guard Vessel Documentation Center.

Last reported at 2018-May-25 13:59 UTC. Time now 2018-May-25 14:24 UTC.
Position N 26°05' W 080°07'.

Type: Tanker. MMSI: 366826000.

Date/timePositionNaut miles runAvg speedWind from/ knotsBaromVisibWave heightAir tempDewpointWater temp
2018-May-25 13:59N 26°05' W 080°07'0 0.0
2018-May-25 13:29N 26°05' W 080°07'0 0.0
2018-May-25 12:59N 26°05' W 080°07'0 0.0
2018-May-25 12:29N 26°05' W 080°07'0 0.0
2018-May-25 11:59N 26°05' W 080°07'0 0.0
2018-May-25 11:29N 26°05' W 080°07'0 0.2
2018-May-25 10:59N 26°05' W 080°07'2 3.4
2018-May-25 10:30N 26°06' W 080°05'4 8.2
2018-May-25 10:00N 26°05' W 080°01'4 7.1
2018-May-25 09:30N 26°02' W 079°58'1 1.3
2018-May-25 09:00N 26°02' W 079°58'0 0.9
2018-May-25 08:30N 26°02' W 079°58'2 4.8
2018-May-25 08:00N 25°60' W 079°59'5 9.2
2018-May-25 07:30N 25°55' W 079°59'714.6
2018-May-25 07:00N 25°48' W 079°57'714.8
2018-May-25 06:30N 25°41' W 079°56'714.6
2018-May-25 06:00N 25°34' W 079°55'815.5
2018-May-25 05:30N 25°26' W 079°57'815.8
2018-May-25 04:58N 25°18' W 079°59'  
2018-May-22 18:00N 28°12' W 092°48'9011.5 100 / 131016.010.8 28.023.9
2018-May-22 10:09N 29°38' W 093°19'3 9.2
2018-May-22 09:52N 29°40' W 093°20'3 8.5
2018-May-22 09:30N 29°43' W 093°20'510.3
2018-May-22 09:00N 29°48' W 093°21'5 9.6
2018-May-22 08:30N 29°53' W 093°21'4 8.2
2018-May-22 08:00N 29°57' W 093°20'4 7.3
2018-May-22 07:30N 30°01' W 093°20'3 6.9
2018-May-22 07:00N 30°04' W 093°20'4 7.1
2018-May-22 06:30N 30°08' W 093°20'3 5.3
2018-May-22 06:00N 30°10' W 093°19'0 0.3
2018-May-22 05:30N 30°11' W 093°19'0 0.0
2018-May-22 05:00N 30°11' W 093°19'0 0.0
2018-May-22 04:30N 30°11' W 093°19'0 0.0
2018-May-22 03:54N 30°11' W 093°19'0 0.0
2018-May-22 03:30N 30°11' W 093°19'0 0.0
2018-May-22 03:00N 30°11' W 093°19'0 0.0
2018-May-22 02:30N 30°11' W 093°19'0 0.0
2018-May-22 02:00N 30°11' W 093°19'0 0.0
2018-May-22 01:30N 30°11' W 093°19'0 0.0
2018-May-22 01:00N 30°11' W 093°19'0 0.0
2018-May-22 00:30N 30°11' W 093°19'0 0.0
2018-May-22 00:00N 30°11' W 093°19'0 0.0
2018-May-21 23:30N 30°11' W 093°19'0 0.0
2018-May-21 23:00N 30°11' W 093°19'0 0.0
2018-May-21 22:30N 30°11' W 093°19'0 0.0
2018-May-21 22:00N 30°11' W 093°19'0 0.0
2018-May-21 21:30N 30°11' W 093°19'0 0.0
2018-May-21 21:00N 30°11' W 093°19'0 0.0
2018-May-21 20:30N 30°11' W 093°19'0 0.0
2018-May-21 20:00N 30°11' W 093°19'0 0.0
2018-May-21 19:30N 30°11' W 093°19'0 0.0
2018-May-21 19:00N 30°11' W 093°19'0 0.0
2018-May-21 18:30N 30°11' W 093°19'0 0.0
2018-May-21 18:00N 30°11' W 093°19'0 0.0
2018-May-21 17:30N 30°11' W 093°19'0 0.0
2018-May-21 17:00N 30°11' W 093°19'0 0.0
2018-May-21 16:30N 30°11' W 093°19'0 0.0
2018-May-21 16:00N 30°11' W 093°19'0 0.0
2018-May-21 15:06N 30°11' W 093°19'0 0.0
2018-May-21 15:00N 30°11' W 093°19'0 0.0
2018-May-21 14:30N 30°11' W 093°19'0 0.0
2018-May-21 14:00N 30°11' W 093°19'0 0.0
2018-May-21 13:30N 30°11' W 093°19'0 0.0
2018-May-21 13:00N 30°11' W 093°19'0 0.0
2018-May-21 12:30N 30°11' W 093°19'0 0.0
2018-May-21 12:00N 30°11' W 093°19'0 0.0
2018-May-21 11:30N 30°11' W 093°19'0 0.0
2018-May-21 11:00N 30°11' W 093°19'0 0.0
2018-May-21 10:30N 30°11' W 093°19'0 0.0
2018-May-21 10:00N 30°11' W 093°19'0 0.0
2018-May-21 09:30N 30°11' W 093°19'0 0.0
2018-May-21 09:00N 30°11' W 093°19'0 0.0
2018-May-21 08:30N 30°11' W 093°19'0 0.0
2018-May-21 08:00N 30°11' W 093°19'0 0.0
2018-May-21 07:30N 30°11' W 093°19'0 0.0
2018-May-21 07:00N 30°11' W 093°19'0 0.0
2018-May-21 06:30N 30°11' W 093°19'0 0.0
2018-May-21 06:00N 30°11' W 093°19'0 0.0
2018-May-21 05:30N 30°11' W 093°19'0 0.0
2018-May-21 05:00N 30°11' W 093°19'0 0.0
2018-May-21 04:30N 30°11' W 093°19'0 0.0
2018-May-21 03:57N 30°11' W 093°19'0 0.0
2018-May-21 03:30N 30°11' W 093°19'0 0.0
2018-May-21 03:00N 30°11' W 093°19'0 0.0
2018-May-21 02:30N 30°11' W 093°19'0 0.0
2018-May-21 02:00N 30°11' W 093°19'0 0.0
2018-May-21 01:30N 30°11' W 093°19'0 0.0
2018-May-21 01:00N 30°11' W 093°19'0 0.0
2018-May-21 00:30N 30°11' W 093°19'0 0.0
2018-May-20 23:57N 30°11' W 093°19'0 0.0
2018-May-20 23:30N 30°11' W 093°19'0 0.0
2018-May-20 23:00N 30°11' W 093°19'0 0.0
2018-May-20 22:30N 30°11' W 093°19'0 0.0
2018-May-20 22:00N 30°11' W 093°19'0 0.0
2018-May-20 21:30N 30°11' W 093°19'0 0.0
2018-May-20 21:00N 30°11' W 093°19'0 0.0
2018-May-20 20:30N 30°11' W 093°19'0 0.0
2018-May-20 20:00N 30°11' W 093°19'0 0.0
2018-May-20 19:30N 30°11' W 093°19'0 0.0
2018-May-20 19:00N 30°11' W 093°19'0 0.0
2018-May-20 18:30N 30°11' W 093°19'0 0.0
2018-May-20 18:00N 30°11' W 093°19'0 0.0
2018-May-20 17:30N 30°11' W 093°19'0 0.0
2018-May-20 17:00N 30°11' W 093°19'0 0.0
2018-May-20 16:30N 30°11' W 093°19'0 0.0
2018-May-20 16:00N 30°11' W 093°19'0 0.0
2018-May-20 15:30N 30°11' W 093°19'0 0.0
2018-May-20 15:00N 30°11' W 093°19'0 0.0
2018-May-20 14:30N 30°11' W 093°19'0 0.0
2018-May-20 14:00N 30°11' W 093°19'0 0.0
2018-May-20 13:30N 30°11' W 093°19'0 0.0
2018-May-20 13:00N 30°11' W 093°19'0 0.0
2018-May-20 12:30N 30°11' W 093°19'0 0.0
2018-May-20 12:00N 30°11' W 093°19'0 0.0
2018-May-20 11:30N 30°11' W 093°19'0 0.0
2018-May-20 11:00N 30°11' W 093°19'0 0.0
2018-May-20 10:30N 30°11' W 093°19'0 0.0
2018-May-20 10:00N 30°11' W 093°19'0 0.0
2018-May-20 09:30N 30°11' W 093°19'0 0.0
2018-May-20 09:00N 30°11' W 093°19'0 0.0
2018-May-20 08:30N 30°11' W 093°19'0 0.0
2018-May-20 08:00N 30°11' W 093°19'0 0.0
2018-May-20 07:30N 30°11' W 093°19'0 0.0
2018-May-20 07:00N 30°11' W 093°19'0 0.0
2018-May-20 06:30N 30°11' W 093°19'0 0.0
2018-May-20 06:00N 30°11' W 093°19'0 0.0
2018-May-20 05:30N 30°11' W 093°19'0 0.0
2018-May-20 05:00N 30°11' W 093°19'0 0.0
2018-May-20 04:30N 30°11' W 093°19'0 0.0
2018-May-20 03:57N 30°11' W 093°19'0 0.0
2018-May-20 03:30N 30°11' W 093°19'0 0.0
2018-May-20 03:00N 30°11' W 093°19'0 0.0
2018-May-20 02:30N 30°11' W 093°19'0 0.0
2018-May-20 02:00N 30°11' W 093°19'0 0.0
2018-May-20 01:30N 30°11' W 093°19'0 0.0
2018-May-20 01:00N 30°11' W 093°19'0 0.0
2018-May-20 00:30N 30°11' W 093°19'0 0.0
2018-May-20 00:00N 30°11' W 093°19'0 0.0
2018-May-19 23:30N 30°11' W 093°19'0 0.0
2018-May-19 23:00N 30°11' W 093°19'0 0.0
2018-May-19 22:30N 30°11' W 093°19'0 0.0
2018-May-19 22:00N 30°11' W 093°19'0 0.0
2018-May-19 21:30N 30°11' W 093°19'0 0.0
2018-May-19 21:00N 30°11' W 093°19'0 0.0
2018-May-19 20:30N 30°11' W 093°19'0 0.0
2018-May-19 20:00N 30°11' W 093°19'0 0.0
2018-May-19 19:30N 30°11' W 093°19'0 0.0
2018-May-19 19:00N 30°11' W 093°19'0 0.0
2018-May-19 18:30N 30°11' W 093°19'0 0.0
2018-May-19 18:01N 30°11' W 093°19'1 1.6
2018-May-19 17:30N 30°11' W 093°18'0 0.3
2018-May-19 17:00N 30°11' W 093°18'0 0.1
2018-May-19 16:30N 30°11' W 093°18'0 0.0
2018-May-19 16:00N 30°11' W 093°18'0 0.0
2018-May-19 15:30N 30°11' W 093°18'0 0.0
2018-May-19 15:00N 30°11' W 093°18'0 0.0
2018-May-19 14:30N 30°11' W 093°18'0 0.1
2018-May-19 14:00N 30°11' W 093°18'0 0.0
2018-May-19 13:30N 30°11' W 093°18'0 0.0
2018-May-19 13:00N 30°11' W 093°18'0 0.1
2018-May-19 12:30N 30°11' W 093°18'0 0.1
2018-May-19 12:00N 30°11' W 093°18'0 0.1
2018-May-19 11:24N 30°11' W 093°19'0 0.0
2018-May-19 11:00N 30°11' W 093°19'0 0.0
2018-May-19 10:30N 30°11' W 093°18'0 0.1
2018-May-19 09:54N 30°11' W 093°18'0 0.0
2018-May-19 09:30N 30°11' W 093°18'0 0.0
2018-May-19 09:00N 30°11' W 093°18'0 0.0
2018-May-19 08:30N 30°11' W 093°18'0 0.0
2018-May-19 08:00N 30°11' W 093°18'0 0.0
2018-May-19 07:30N 30°11' W 093°18'0 0.0
2018-May-19 07:00N 30°11' W 093°18'0 0.0
2018-May-19 06:30N 30°11' W 093°18'0 0.0
2018-May-19 06:00N 30°11' W 093°18'0 0.1
2018-May-19 05:30N 30°11' W 093°18'0 0.0
2018-May-19 05:00N 30°11' W 093°18'0 0.0
2018-May-19 04:30N 30°11' W 093°18'0 0.0
2018-May-19 04:00N 30°11' W 093°19'0 0.0
2018-May-19 03:30N 30°11' W 093°19'0 0.1
2018-May-19 03:00N 30°11' W 093°18'0 0.1
2018-May-19 02:30N 30°11' W 093°18'0 0.0
2018-May-19 02:00N 30°11' W 093°18'0 0.1
2018-May-19 01:30N 30°11' W 093°18'0 0.0
2018-May-19 01:00N 30°11' W 093°18'0 0.1
2018-May-19 00:30N 30°11' W 093°18'1 1.7
2018-May-19 00:00N 30°10' W 093°19'2 4.7
2018-May-18 23:30N 30°08' W 093°20'3 6.6
2018-May-18 23:00N 30°05' W 093°20'4 7.5
2018-May-18 22:30N 30°01' W 093°20'4 7.5
2018-May-18 22:00N 29°57' W 093°20'5 9.1
2018-May-18 21:30N 29°53' W 093°21'5 9.4
2018-May-18 21:00N 29°48' W 093°21'5 9.7
2018-May-18 20:30N 29°43' W 093°20'712.7
2018-May-18 19:59N 29°37' W 093°19'6213.1
2018-May-18 15:14N 28°35' W 093°11'313.7
2018-May-18 14:59N 28°32' W 093°09'713.6
2018-May-18 14:30N 28°27' W 093°04'2513.9
2018-May-18 12:43N 28°07' W 092°47'414.3
2018-May-18 12:27N 28°04' W 092°45'1914.4
2018-May-18 11:10N 27°49' W 092°32'214.5
2018-May-18 11:00N 27°48' W 092°30'714.5
2018-May-18 10:30N 27°45' W 092°22'914.4
2018-May-18 09:52N 27°42' W 092°13'614.2
2018-May-18 09:27N 27°40' W 092°07'614.2
2018-May-18 09:00N 27°37' W 091°60'3314.1
2018-May-18 06:38N 27°24' W 091°25'214.1
2018-May-18 06:30N 27°23' W 091°23'2813.1
2018-May-18 04:23N 27°12' W 090°55'  
2018-May-15 21:50N 25°19' W 080°03'7 9.7
2018-May-15 21:10N 25°25' W 080°01'2 9.5
2018-May-15 21:00N 25°27' W 080°01'5 9.6
2018-May-15 20:30N 25°32' W 079°59'5 9.5
2018-May-15 20:00N 25°36' W 079°59'5 9.7
2018-May-15 19:30N 25°41' W 079°59'5 9.7
2018-May-15 19:01N 25°46' W 079°59'5 9.5
2018-May-15 18:31N 25°51' W 079°59'5 9.6
2018-May-15 18:00N 25°55' W 079°58'5 9.5
2018-May-15 17:30N 26°00' W 079°58'5 9.1
2018-May-15 17:01N 26°04' W 080°00'5 9.2
2018-May-15 16:30N 26°06' W 080°05'2 3.9
2018-May-15 16:00N 26°06' W 080°07'0 0.0
2018-May-15 15:29N 26°06' W 080°07'0 0.0
2018-May-15 14:59N 26°06' W 080°07'0 0.0
2018-May-15 14:29N 26°06' W 080°07'0 0.0
2018-May-15 13:59N 26°06' W 080°07'  

Dump ship's entire track history